createdAt,value
2023-04-07T00:01:06.392Z,6.11
2023-04-07T00:04:08.228Z,6.11
2023-04-07T00:07:09.986Z,6.15
2023-04-07T00:10:11.583Z,6.20
2023-04-07T00:13:13.150Z,6.23
2023-04-07T00:16:14.804Z,6.25
2023-04-07T00:19:16.742Z,6.26
2023-04-07T00:22:18.410Z,6.27
2023-04-07T00:25:20.041Z,6.27
2023-04-07T00:28:21.662Z,6.24
2023-04-07T00:31:23.486Z,6.17
2023-04-07T00:34:25.110Z,6.09
2023-04-07T00:37:26.753Z,6.01
2023-04-07T00:40:28.404Z,5.94
2023-04-07T00:43:30.033Z,5.87
2023-04-07T00:46:31.738Z,5.80
2023-04-07T00:49:33.388Z,5.76
2023-04-07T00:52:35.917Z,5.73
2023-04-07T00:55:37.552Z,5.71
2023-04-07T00:58:39.326Z,5.71
2023-04-07T01:02:11.928Z,5.71
2023-04-07T01:05:19.855Z,5.71
2023-04-07T01:08:31.043Z,5.71
2023-04-07T01:12:49.698Z,5.69
2023-04-07T01:15:56.278Z,5.69
2023-04-07T01:19:16.255Z,5.67
2023-04-07T01:22:29.103Z,5.65
2023-04-07T01:25:55.263Z,5.64
2023-04-07T01:29:25.159Z,5.64
2023-04-07T01:32:27.989Z,5.65
2023-04-07T01:35:31.340Z,5.64
2023-04-07T01:38:33.873Z,5.61
2023-04-07T01:41:36.190Z,5.57
2023-04-07T01:44:38.534Z,5.53
2023-04-07T01:47:40.426Z,5.53
2023-04-07T01:50:43.518Z,5.54
2023-04-07T01:53:49.159Z,5.58
2023-04-07T01:56:50.848Z,5.59
2023-04-07T01:59:53.507Z,5.61
2023-04-07T02:03:03.796Z,5.63
2023-04-07T02:06:08.039Z,5.65
2023-04-07T02:09:11.701Z,5.67
2023-04-07T02:12:14.831Z,5.70
2023-04-07T02:15:24.092Z,5.73
2023-04-07T02:18:27.216Z,5.73
2023-04-07T02:21:30.629Z,5.74
2023-04-07T02:24:32.490Z,5.76
2023-04-07T02:27:34.181Z,5.75
2023-04-07T02:30:36.531Z,5.77
2023-04-07T02:33:39.685Z,5.78
2023-04-07T02:36:41.357Z,5.80
2023-04-07T02:39:42.971Z,5.83
2023-04-07T02:42:44.613Z,5.84
2023-04-07T02:45:46.325Z,5.87
2023-04-07T02:48:47.872Z,5.91
2023-04-07T02:51:49.541Z,5.95
2023-04-07T02:54:51.279Z,5.99
2023-04-07T02:57:54.091Z,6.03
2023-04-07T03:01:06.608Z,6.06
2023-04-07T03:04:09.754Z,6.08
2023-04-07T03:07:11.579Z,6.12
2023-04-07T03:10:13.421Z,6.15
2023-04-07T03:13:16.616Z,6.17
2023-04-07T03:16:18.500Z,6.18
2023-04-07T03:19:31.662Z,6.19
2023-04-07T03:22:33.439Z,6.19
2023-04-07T03:25:36.903Z,6.21
2023-04-07T03:28:38.947Z,6.23
2023-04-07T03:31:42.691Z,6.16
2023-04-07T03:34:45.861Z,6.10
2023-04-07T03:37:48.329Z,6.04
2023-04-07T03:40:51.970Z,5.98
2023-04-07T03:43:55.807Z,5.94
2023-04-07T03:46:58.592Z,5.91
2023-04-07T03:50:01.357Z,5.83
2023-04-07T03:53:04.178Z,5.74
2023-04-07T03:56:06.229Z,5.66
2023-04-07T03:59:18.058Z,5.59
2023-04-07T04:02:27.286Z,5.55
2023-04-07T04:05:30.317Z,5.53
2023-04-07T04:08:32.606Z,5.52
2023-04-07T04:11:34.233Z,5.51
2023-04-07T04:14:38.138Z,5.48
2023-04-07T04:17:41.782Z,5.39
2023-04-07T04:20:43.756Z,5.32
2023-04-07T04:23:45.602Z,5.24
2023-04-07T04:26:47.227Z,5.19
2023-04-07T04:29:49.442Z,5.17
2023-04-07T04:32:54.355Z,5.16
2023-04-07T04:36:25.010Z,5.14
2023-04-07T04:39:30.533Z,5.10
2023-04-07T04:42:33.867Z,5.02
2023-04-07T04:45:36.775Z,4.93
2023-04-07T04:48:38.979Z,4.86
2023-04-07T04:51:41.238Z,4.79
2023-04-07T04:54:48.095Z,4.74
2023-04-07T04:57:50.441Z,4.73
2023-04-07T05:00:58.500Z,4.72
2023-04-07T05:04:05.259Z,4.67
2023-04-07T05:07:07.052Z,4.62
2023-04-07T05:10:09.279Z,4.56
2023-04-07T05:13:12.734Z,4.52
2023-04-07T05:16:16.213Z,4.50
2023-04-07T05:19:18.188Z,4.51
2023-04-07T05:22:20.125Z,4.55
2023-04-07T05:25:22.798Z,4.60
2023-04-07T05:28:26.528Z,4.65
2023-04-07T05:31:29.467Z,4.69
2023-04-07T05:34:32.268Z,4.76
2023-04-07T05:37:33.929Z,4.84
2023-04-07T05:40:38.031Z,4.90
2023-04-07T05:43:41.152Z,4.96
2023-04-07T05:46:43.839Z,5.02
2023-04-07T05:49:48.474Z,5.08
2023-04-07T05:52:50.187Z,5.13
2023-04-07T05:55:57.895Z,5.19
2023-04-07T05:59:12.014Z,5.26
2023-04-07T06:02:14.303Z,5.32
2023-04-07T06:05:16.573Z,5.35
2023-04-07T06:08:18.537Z,5.40
2023-04-07T06:11:20.729Z,5.45
2023-04-07T06:14:22.818Z,5.53
2023-04-07T06:17:24.824Z,5.61
2023-04-07T06:20:27.900Z,5.70
2023-04-07T06:23:29.654Z,5.78
2023-04-07T06:26:32.601Z,5.88
2023-04-07T06:29:34.534Z,5.99
2023-04-07T06:32:40.351Z,6.13
2023-04-07T06:35:41.973Z,6.28
2023-04-07T06:38:43.693Z,6.46
2023-04-07T06:41:48.226Z,6.63
2023-04-07T06:44:50.114Z,6.85
2023-04-07T06:47:52.041Z,7.04
2023-04-07T06:50:53.780Z,7.25
2023-04-07T06:53:55.383Z,7.48
2023-04-07T06:56:57.454Z,7.72
2023-04-07T06:59:59.082Z,7.94
2023-04-07T07:03:01.123Z,8.16
2023-04-07T07:06:02.898Z,8.36
2023-04-07T07:09:05.443Z,8.56
2023-04-07T07:12:07.422Z,8.76
2023-04-07T07:15:09.441Z,8.96
2023-04-07T07:18:11.945Z,9.15
2023-04-07T07:21:13.576Z,9.39
2023-04-07T07:24:15.482Z,9.64
2023-04-07T07:27:17.257Z,9.93
2023-04-07T07:30:20.941Z,10.23
2023-04-07T07:33:22.970Z,10.51
2023-04-07T07:36:24.680Z,10.84
2023-04-07T07:39:26.970Z,11.15
2023-04-07T07:42:28.706Z,11.46
2023-04-07T07:45:30.276Z,11.72
2023-04-07T07:48:32.003Z,11.96
2023-04-07T07:51:33.650Z,12.20
2023-04-07T07:54:35.350Z,12.43
2023-04-07T07:57:36.943Z,12.63
2023-04-07T08:00:38.539Z,12.82
2023-04-07T08:03:40.684Z,13.02
2023-04-07T08:06:42.978Z,13.22
2023-04-07T08:09:44.946Z,13.48
2023-04-07T08:12:46.626Z,13.73
2023-04-07T08:15:48.309Z,13.94
2023-04-07T08:18:50.096Z,14.14
2023-04-07T08:21:51.745Z,14.31
2023-04-07T08:24:53.350Z,14.49
2023-04-07T08:27:55.153Z,14.71
2023-04-07T08:30:56.842Z,14.81
2023-04-07T08:33:59.056Z,14.86
2023-04-07T08:37:00.697Z,14.84
2023-04-07T08:40:03.995Z,14.91
2023-04-07T08:43:09.440Z,14.99
2023-04-07T08:46:11.567Z,15.12
2023-04-07T08:49:14.438Z,15.22
2023-04-07T08:52:18.316Z,15.27
2023-04-07T08:55:20.445Z,15.26
2023-04-07T08:58:22.148Z,15.31
2023-04-07T09:01:24.445Z,15.31
2023-04-07T09:04:27.697Z,15.34
2023-04-07T09:07:29.334Z,15.34
2023-04-07T09:10:31.445Z,15.32
2023-04-07T09:13:33.588Z,15.26
2023-04-07T09:16:35.283Z,15.15
2023-04-07T09:19:36.966Z,15.19
2023-04-07T09:22:39.671Z,15.23
2023-04-07T09:25:41.312Z,15.27
2023-04-07T09:28:44.066Z,15.38
2023-04-07T09:31:47.919Z,15.53
2023-04-07T09:34:59.000Z,15.74
2023-04-07T09:38:08.654Z,15.97
2023-04-07T09:41:15.407Z,16.09
2023-04-07T09:44:17.094Z,16.22
2023-04-07T09:47:18.893Z,16.25
2023-04-07T09:50:49.515Z,16.14
2023-04-07T09:53:52.602Z,16.12
2023-04-07T09:56:55.622Z,16.27
2023-04-07T09:59:57.513Z,16.44
2023-04-07T10:02:59.426Z,16.55
2023-04-07T10:06:02.109Z,16.64
2023-04-07T10:09:03.794Z,16.81
2023-04-07T10:12:07.057Z,16.92
2023-04-07T10:15:09.192Z,17.07
2023-04-07T10:18:11.035Z,17.14
2023-04-07T10:21:15.327Z,17.12
2023-04-07T10:24:28.837Z,17.22
2023-04-07T10:27:37.005Z,17.41
2023-04-07T10:30:39.305Z,17.51
2023-04-07T10:33:52.799Z,17.44
2023-04-07T10:37:13.592Z,17.48
2023-04-07T10:40:21.710Z,17.54
2023-04-07T10:43:40.944Z,17.60
2023-04-07T10:46:45.336Z,17.63
2023-04-07T10:50:24.082Z,17.69
2023-04-07T10:53:25.656Z,17.66
2023-04-07T10:56:28.083Z,17.62
2023-04-07T10:59:30.126Z,17.46
2023-04-07T11:02:32.854Z,17.27
2023-04-07T11:05:38.823Z,17.16
2023-04-07T11:08:42.354Z,17.20
2023-04-07T11:11:45.109Z,17.23
2023-04-07T11:14:47.064Z,17.18
2023-04-07T11:18:08.122Z,17.02
2023-04-07T11:21:09.925Z,16.88
2023-04-07T11:24:11.777Z,16.79
2023-04-07T11:27:14.356Z,16.80
2023-04-07T11:30:18.172Z,16.90
2023-04-07T11:33:24.304Z,16.96
2023-04-07T11:36:39.486Z,16.99
2023-04-07T11:39:41.147Z,17.03
2023-04-07T11:42:46.243Z,17.00
2023-04-07T11:46:04.366Z,16.98
2023-04-07T11:49:15.957Z,16.94
2023-04-07T11:52:17.577Z,16.92
2023-04-07T11:55:22.005Z,16.96
2023-04-07T11:58:23.951Z,17.15
2023-04-07T12:01:39.516Z,17.36
2023-04-07T12:04:56.108Z,17.58
2023-04-07T12:07:58.073Z,17.74
2023-04-07T12:11:06.030Z,17.88
2023-04-07T12:14:09.251Z,17.98
2023-04-07T12:17:21.247Z,17.97
2023-04-07T12:20:22.807Z,17.92
2023-04-07T12:23:24.505Z,17.78
2023-04-07T12:26:26.416Z,17.61
2023-04-07T12:29:28.072Z,17.56
2023-04-07T12:32:30.114Z,17.54
2023-04-07T12:35:32.301Z,17.47
2023-04-07T12:38:34.063Z,17.49
2023-04-07T12:41:36.224Z,17.50
2023-04-07T12:44:38.538Z,17.54
2023-04-07T12:47:40.565Z,17.60
2023-04-07T12:50:42.290Z,17.59
2023-04-07T12:53:43.890Z,17.60
2023-04-07T12:56:46.115Z,17.58
2023-04-07T12:59:48.255Z,17.55
2023-04-07T13:02:49.949Z,17.56
2023-04-07T13:05:51.574Z,17.58
2023-04-07T13:08:53.213Z,17.54
2023-04-07T13:11:54.741Z,17.44
2023-04-07T13:15:00.031Z,17.38
2023-04-07T13:18:02.273Z,17.33
2023-04-07T13:24:08.835Z,17.32
2023-04-07T13:27:11.050Z,17.33
2023-04-07T13:30:13.644Z,17.35
2023-04-07T13:33:15.322Z,17.39
2023-04-07T13:36:17.064Z,17.43
2023-04-07T13:39:19.122Z,17.46
2023-04-07T13:42:21.107Z,17.49
2023-04-07T13:45:23.000Z,17.49
2023-04-07T13:48:24.778Z,17.49
2023-04-07T13:51:26.479Z,17.46
2023-04-07T13:54:28.054Z,17.41
2023-04-07T13:57:29.854Z,17.39
2023-04-07T14:00:31.688Z,17.35
2023-04-07T14:03:33.402Z,17.34
2023-04-07T14:06:36.761Z,17.36
2023-04-07T14:09:38.519Z,17.36
2023-04-07T14:12:40.144Z,17.38
2023-04-07T14:15:41.818Z,17.40
2023-04-07T14:18:43.951Z,17.39
2023-04-07T14:21:46.082Z,17.39
2023-04-07T14:24:47.694Z,17.33
2023-04-07T14:27:49.338Z,17.25
2023-04-07T14:30:51.627Z,17.19
2023-04-07T14:33:53.359Z,17.14
2023-04-07T14:36:56.161Z,17.05
2023-04-07T14:43:07.330Z,16.94
2023-04-07T14:46:09.341Z,16.94
2023-04-07T14:49:11.079Z,16.94
2023-04-07T14:52:14.192Z,16.93
2023-04-07T14:55:15.740Z,16.92
2023-04-07T14:58:17.440Z,16.92
2023-04-07T15:01:19.060Z,16.94
2023-04-07T15:04:20.966Z,16.95
2023-04-07T15:07:22.717Z,16.96
2023-04-07T15:10:24.512Z,16.97
2023-04-07T15:13:26.148Z,16.98
2023-04-07T15:16:27.897Z,16.97
2023-04-07T15:19:30.072Z,16.96
2023-04-07T15:22:31.696Z,16.95
2023-04-07T15:25:33.966Z,16.93
2023-04-07T15:28:35.679Z,16.92
2023-04-07T15:31:37.330Z,16.90
2023-04-07T15:34:39.048Z,16.86
2023-04-07T15:37:40.625Z,16.83
2023-04-07T15:40:42.348Z,16.76
2023-04-07T15:43:43.947Z,16.68
2023-04-07T15:46:45.948Z,16.60
2023-04-07T15:49:47.571Z,16.54
2023-04-07T15:52:49.339Z,16.49
2023-04-07T15:55:50.973Z,16.44
2023-04-07T15:58:52.540Z,16.39
2023-04-07T16:01:54.277Z,16.38
2023-04-07T16:04:55.958Z,16.39
2023-04-07T16:07:57.584Z,16.37
2023-04-07T16:10:59.244Z,16.32
2023-04-07T16:14:00.846Z,16.28
2023-04-07T16:17:02.616Z,16.27
2023-04-07T16:20:04.661Z,16.28
2023-04-07T16:23:06.350Z,16.30
2023-04-07T16:26:07.965Z,16.32
2023-04-07T16:29:09.668Z,16.34
2023-04-07T16:32:11.368Z,16.37
2023-04-07T16:35:14.426Z,16.37
2023-04-07T16:38:16.083Z,16.38
2023-04-07T16:41:17.727Z,16.39
2023-04-07T16:44:22.104Z,16.39
2023-04-07T16:47:24.845Z,16.40
2023-04-07T16:50:26.623Z,16.40
2023-04-07T16:53:28.292Z,16.38
2023-04-07T16:56:29.989Z,16.34
2023-04-07T16:59:32.195Z,16.29
2023-04-07T17:02:34.013Z,16.24
2023-04-07T17:05:35.729Z,16.22
2023-04-07T17:08:38.588Z,16.21
2023-04-07T17:11:41.107Z,16.18
2023-04-07T17:14:42.680Z,16.16
2023-04-07T17:17:44.369Z,16.13
2023-04-07T17:20:46.032Z,16.06
2023-04-07T17:23:48.105Z,15.96
2023-04-07T17:26:50.077Z,15.83
2023-04-07T17:29:51.838Z,15.68
2023-04-07T17:32:53.880Z,15.53
2023-04-07T17:35:56.122Z,15.35
2023-04-07T17:38:57.888Z,15.16
2023-04-07T17:41:59.521Z,14.97
2023-04-07T17:45:02.170Z,14.80
2023-04-07T17:48:04.112Z,14.63
2023-04-07T17:51:05.803Z,14.43
2023-04-07T17:54:07.628Z,14.25
2023-04-07T17:57:09.689Z,14.05
2023-04-07T18:00:11.742Z,13.85
2023-04-07T18:03:16.684Z,13.61
2023-04-07T18:06:18.771Z,13.33
2023-04-07T18:09:20.689Z,13.08
2023-04-07T18:12:22.803Z,12.81
2023-04-07T18:15:24.423Z,12.54
2023-04-07T18:18:26.007Z,12.30
2023-04-07T18:21:29.539Z,12.07
2023-04-07T18:24:31.315Z,11.85
2023-04-07T18:27:32.835Z,11.65
2023-04-07T18:30:35.154Z,11.47
2023-04-07T18:33:36.777Z,11.33
2023-04-07T18:36:40.819Z,11.20
2023-04-07T18:39:42.633Z,11.10
2023-04-07T18:42:44.316Z,10.97
2023-04-07T18:45:46.949Z,10.85
2023-04-07T18:48:48.718Z,10.77
2023-04-07T18:51:50.318Z,10.70
2023-04-07T18:54:51.948Z,10.64
2023-04-07T18:57:53.588Z,10.56
2023-04-07T19:00:55.380Z,10.46
2023-04-07T19:03:57.778Z,10.40
2023-04-07T19:06:59.754Z,10.31
2023-04-07T19:10:01.402Z,10.14
2023-04-07T19:13:03.863Z,10.04
2023-04-07T19:16:07.515Z,9.98
2023-04-07T19:19:11.335Z,9.91
2023-04-07T19:22:13.168Z,9.82
2023-04-07T19:25:14.789Z,9.74
2023-04-07T19:28:16.505Z,9.68
2023-04-07T19:31:18.219Z,9.65
2023-04-07T19:34:19.973Z,9.62
2023-04-07T19:37:21.520Z,9.59
2023-04-07T19:40:23.576Z,9.55
2023-04-07T19:43:25.375Z,9.47
2023-04-07T19:46:27.041Z,9.34
2023-04-07T19:49:28.782Z,9.16
2023-04-07T19:52:31.218Z,9.02
2023-04-07T19:55:32.762Z,8.89
2023-04-07T19:58:34.549Z,8.74
2023-04-07T20:01:36.353Z,8.55
2023-04-07T20:04:38.019Z,8.38
2023-04-07T20:07:39.645Z,8.25
2023-04-07T20:10:41.371Z,8.12
2023-04-07T20:13:42.923Z,8.04
2023-04-07T20:16:44.780Z,7.95
2023-04-07T20:19:47.858Z,7.93
2023-04-07T20:22:49.553Z,7.95
2023-04-07T20:25:51.208Z,7.95
2023-04-07T20:28:53.534Z,7.93
2023-04-07T20:31:55.341Z,7.91
2023-04-07T20:34:57.002Z,7.85
2023-04-07T20:38:00.178Z,7.76
2023-04-07T20:41:01.966Z,7.67
2023-04-07T20:44:04.354Z,7.62
2023-04-07T20:47:09.615Z,7.61
2023-04-07T20:50:11.430Z,7.59
2023-04-07T20:53:13.550Z,7.58
2023-04-07T20:56:15.438Z,7.54
2023-04-07T20:59:17.069Z,7.51
2023-04-07T21:02:18.741Z,7.46
2023-04-07T21:05:20.839Z,7.42
2023-04-07T21:08:25.458Z,7.40
2023-04-07T21:11:27.508Z,7.38
2023-04-07T21:14:29.110Z,7.36
2023-04-07T21:17:30.852Z,7.34
2023-04-07T21:20:32.436Z,7.29
2023-04-07T21:23:34.335Z,7.21
2023-04-07T21:26:36.144Z,7.14
2023-04-07T21:29:37.895Z,7.06
2023-04-07T21:32:40.876Z,6.98
2023-04-07T21:35:42.769Z,6.93
2023-04-07T21:38:44.432Z,6.91
2023-04-07T21:41:46.085Z,6.92
2023-04-07T21:44:47.713Z,6.94
2023-04-07T21:47:49.479Z,6.94
2023-04-07T21:50:52.202Z,6.92
2023-04-07T21:53:53.900Z,6.91
2023-04-07T21:56:55.504Z,6.91
2023-04-07T21:59:57.026Z,6.91
2023-04-07T22:02:58.836Z,6.90
2023-04-07T22:06:01.172Z,6.91
2023-04-07T22:09:03.617Z,6.91
2023-04-07T22:12:05.797Z,6.92
2023-04-07T22:15:08.915Z,6.92
2023-04-07T22:18:11.788Z,6.91
2023-04-07T22:21:14.785Z,6.89
2023-04-07T22:24:16.575Z,6.88
2023-04-07T22:27:18.136Z,6.90
2023-04-07T22:30:20.149Z,6.91
2023-04-07T22:33:21.784Z,6.92
2023-04-07T22:36:23.465Z,6.93
2023-04-07T22:39:25.204Z,6.96
2023-04-07T22:42:26.881Z,6.96
2023-04-07T22:45:29.311Z,6.97
2023-04-07T22:48:30.973Z,6.94
2023-04-07T22:51:32.572Z,6.87
2023-04-07T22:54:34.247Z,6.81
2023-04-07T22:57:35.868Z,6.75
2023-04-07T23:00:37.492Z,6.69
2023-04-07T23:03:39.293Z,6.67
2023-04-07T23:06:43.587Z,6.66
2023-04-07T23:09:45.352Z,6.66
2023-04-07T23:12:47.156Z,6.66
2023-04-07T23:15:48.929Z,6.68
2023-04-07T23:18:50.734Z,6.68
2023-04-07T23:21:53.574Z,6.69
2023-04-07T23:24:55.441Z,6.70
2023-04-07T23:27:56.972Z,6.66
2023-04-07T23:30:58.564Z,6.60
2023-04-07T23:34:00.284Z,6.54
2023-04-07T23:37:02.282Z,6.49
2023-04-07T23:40:04.565Z,6.44
2023-04-07T23:43:06.825Z,6.42
2023-04-07T23:46:08.441Z,6.41
2023-04-07T23:49:10.119Z,6.39
2023-04-07T23:52:12.152Z,6.35
2023-04-07T23:55:23.847Z,6.31
2023-04-07T23:58:25.493Z,6.28
